Airfield :
LOGIN :

Register | Disclaimer

   EN    FR    IT 

 










Legend :    VFR   Marginal VFR   IFR   Intensive IFR   Very Intensive IFR
Visi :
Ceiling :
>= 8 km
>= 3000ft
5 to 8 km
1000 to 3000 ft
1500m to 5 km
500 to 1000 ft
800 to 1500m
200 to 500 ft
< 800m
< 200 ft
Symbols :   Thunderstorms  Fog  Heavy snow  Heavy precipitations  Wind > 20 kt
SIGMETs :     Misc.  Thunderstorms  Icing  Turbulence  Mountain Waves  Volcanic Ashes







- Airport Elevation : 3 ft
- IATA code : DHR


EHKD - Den Helder De Kooy

CURRENT METAR :
  • 200255Z AUTO 16005KT 130V190 9999 FEW044 BKN058 OVC067 18/15 Q1008 BLU

EXPIRED METARs :
  • 200225Z AUTO 14005KT 9999 OVC071 18/15 Q1009 BLU
  • 200155Z AUTO 14003KT 090V180 9999 BKN066 OVC072 18/15 Q1009 BLU
  • 200125Z AUTO 15004KT 120V180 9999 SCT045 BKN049 OVC065 18/15 Q1009 BLU
  • 200055Z AUTO 15004KT 120V180 9999 FEW044 SCT049 BKN053 18/15 Q1010 BLU
  • 200025Z AUTO 15004KT 9999 BKN042 BKN046 OVC050 18/15 Q1010 BLU

TAF TAF EHKD
Valid from the 20 at 02:00 until the 20 at 14:00 UTC


200102Z 2002/2014 15006KT 9999 BKN045
BECMG 2007/2010 20012KT
TEMPO 2006/2013 22020G35KT 3000 SHRA TSRA FEW010 SCT030CB BKN040
PROB40
TEMPO 2006/2012 22025G45KT 1500 TSRA TSRAGR SCT008 SCT030CB BKN040
TEMPO 2012/2013 SCT008 BKN012
No reported NOTAMs for that airfield.



MET'MAP, your aeronautical weather chart ! - Copyright ORBIFLY December 2007 - Disclaimer

ORBIFLY MET'MAP TEAM :

Programming & Development : Alexandra Zaïnal
Concept & Development : Baudouin d'Aumeries
Co-Development & Prog : Marc-Olivier Méhu
Technical & hardware support : Manuel Goepfert

Contact : metmap@orbifly.com




SOURCES & CREDITS :

   NOAA